createdAt,value
2017-02-12T00:00:44.065Z,5.17
2017-02-12T00:01:44.088Z,5.17
2017-02-12T00:02:44.100Z,5.2
2017-02-12T00:03:44.111Z,5.18
2017-02-12T00:04:44.122Z,5.28
2017-02-12T00:05:44.128Z,5.23
2017-02-12T00:06:43.740Z,5.28
2017-02-12T00:07:44.141Z,5.2
2017-02-12T00:08:44.157Z,5.2
2017-02-12T00:09:44.161Z,5.2
2017-02-12T00:10:44.174Z,5.2
2017-02-12T00:11:44.193Z,5.25
2017-02-12T00:12:44.206Z,5.2
2017-02-12T00:13:44.218Z,5.23
2017-02-12T00:14:44.226Z,5.17
2017-02-12T00:15:44.239Z,5.17
2017-02-12T00:16:44.253Z,5.2
2017-02-12T00:17:44.296Z,5.21
2017-02-12T00:18:44.270Z,5.14
2017-02-12T00:19:44.277Z,5.18
2017-02-12T00:20:44.284Z,5.21
2017-02-12T00:21:44.297Z,5.21
2017-02-12T00:22:44.317Z,5.23
2017-02-12T00:23:44.322Z,5.3
2017-02-12T00:24:44.349Z,5.21
2017-02-12T00:25:44.343Z,5.2
2017-02-12T00:26:44.358Z,5.23
2017-02-12T00:27:44.372Z,5.2
2017-02-12T00:28:44.380Z,5.18
2017-02-12T00:29:44.443Z,5.23
2017-02-12T00:30:44.402Z,5.18
2017-02-12T00:31:44.414Z,5.21
2017-02-12T00:32:44.424Z,5.18
2017-02-12T00:33:44.426Z,5.2
2017-02-12T00:34:44.440Z,5.17
2017-02-12T00:35:44.457Z,5.23
2017-02-12T00:36:44.478Z,5.18
2017-02-12T00:37:44.482Z,5.2
2017-02-12T00:38:44.491Z,5.2
2017-02-12T00:39:44.503Z,5.29
2017-02-12T00:40:44.511Z,5.25
2017-02-12T00:41:44.517Z,5.29
2017-02-12T00:42:44.535Z,5.26
2017-02-12T00:43:44.547Z,5.32
2017-02-12T00:44:44.556Z,5.33
2017-02-12T00:45:44.570Z,5.28
2017-02-12T00:46:44.180Z,5.29
2017-02-12T00:47:44.579Z,5.32
2017-02-12T00:48:44.607Z,5.25
2017-02-12T00:49:44.610Z,5.28
2017-02-12T00:50:44.626Z,5.25
2017-02-12T00:51:44.637Z,5.28
2017-02-12T00:52:44.639Z,5.23
2017-02-12T00:53:44.656Z,5.23
2017-02-12T00:54:44.669Z,5.26
2017-02-12T00:55:44.678Z,5.28
2017-02-12T00:56:44.691Z,5.26
2017-02-12T00:57:44.697Z,5.28
2017-02-12T00:58:44.712Z,5.23
2017-02-12T00:59:44.720Z,5.26
2017-02-12T01:00:44.733Z,5.23
2017-02-12T01:01:44.746Z,5.25
2017-02-12T01:02:44.759Z,5.17
2017-02-12T01:03:44.765Z,5.28
2017-02-12T01:04:44.778Z,5.2
2017-02-12T01:05:44.786Z,5.2
2017-02-12T01:06:44.800Z,5.2
2017-02-12T01:07:44.810Z,5.21
2017-02-12T01:08:44.827Z,5.23
2017-02-12T01:09:44.824Z,5.26
2017-02-12T01:10:44.843Z,5.2
2017-02-12T01:11:44.847Z,5.2
2017-02-12T01:12:44.868Z,5.26
2017-02-12T01:13:44.878Z,5.21
2017-02-12T01:14:44.484Z,5.26
2017-02-12T01:15:44.903Z,5.25
2017-02-12T01:16:44.902Z,5.23
2017-02-12T01:17:44.930Z,5.23
2017-02-12T01:18:44.919Z,5.29
2017-02-12T01:19:44.546Z,5.2
2017-02-12T01:20:44.953Z,5.23
2017-02-12T01:21:44.958Z,5.21
2017-02-12T01:22:44.569Z,5.17
2017-02-12T01:23:44.987Z,5.23
2017-02-12T01:24:44.997Z,5.23
2017-02-12T01:25:45.007Z,5.21
2017-02-12T01:26:45.025Z,5.23
2017-02-12T01:27:45.020Z,5.15
2017-02-12T01:28:45.048Z,5.21
2017-02-12T01:29:45.043Z,5.23
2017-02-12T01:30:45.063Z,5.17
2017-02-12T01:31:45.074Z,5.2
2017-02-12T01:32:45.090Z,5.18
2017-02-12T01:33:45.097Z,5.3
2017-02-12T01:34:45.109Z,5.25
2017-02-12T01:35:45.119Z,5.18
2017-02-12T01:36:45.131Z,5.29
2017-02-12T01:37:45.135Z,5.26
2017-02-12T01:38:45.147Z,5.25
2017-02-12T01:39:45.152Z,5.15
2017-02-12T01:40:45.161Z,5.2
2017-02-12T01:41:45.170Z,5.23
2017-02-12T01:42:45.184Z,5.21
2017-02-12T01:43:45.192Z,5.14
2017-02-12T01:44:45.207Z,5.28
2017-02-12T01:45:45.224Z,5.2
2017-02-12T01:46:45.225Z,5.25
2017-02-12T01:47:45.240Z,5.2
2017-02-12T01:48:45.258Z,5.25
2017-02-12T01:49:44.464Z,5.26
2017-02-12T01:50:45.278Z,5.28
2017-02-12T01:51:45.279Z,5.23
2017-02-12T01:52:45.287Z,5.32
2017-02-12T01:53:45.300Z,5.25
2017-02-12T01:54:45.320Z,5.23
2017-02-12T01:55:45.321Z,5.21
2017-02-12T01:56:45.347Z,5.26
2017-02-12T01:57:45.344Z,5.25
2017-02-12T01:58:45.353Z,5.21
2017-02-12T01:59:45.368Z,5.26
2017-02-12T02:00:45.384Z,5.2
2017-02-12T02:01:45.396Z,5.2
2017-02-12T02:02:45.407Z,5.25
2017-02-12T02:03:45.420Z,5.25
2017-02-12T02:04:45.424Z,5.29
2017-02-12T02:05:45.433Z,5.23
2017-02-12T02:06:45.445Z,5.26
2017-02-12T02:07:45.459Z,5.18
2017-02-12T02:08:45.467Z,5.26
2017-02-12T02:09:45.514Z,5.25
2017-02-12T02:10:45.496Z,5.17
2017-02-12T02:11:45.501Z,5.25
2017-02-12T02:12:45.113Z,5.23
2017-02-12T02:13:45.524Z,5.23
2017-02-12T02:14:45.538Z,5.21
2017-02-12T02:15:45.543Z,5.23
2017-02-12T02:16:45.557Z,5.2
2017-02-12T02:17:45.566Z,5.18
2017-02-12T02:18:45.181Z,5.21
2017-02-12T02:19:45.593Z,5.18
2017-02-12T02:20:45.598Z,5.25
2017-02-12T02:21:45.610Z,5.25
2017-02-12T02:22:45.622Z,5.21
2017-02-12T02:23:45.636Z,5.21
2017-02-12T02:24:45.646Z,5.21
2017-02-12T02:25:45.660Z,5.21
2017-02-12T02:26:45.271Z,5.2
2017-02-12T02:27:45.673Z,5.18
2017-02-12T02:28:45.693Z,5.23
2017-02-12T02:29:45.700Z,5.2
2017-02-12T02:30:45.719Z,5.2
2017-02-12T02:31:45.723Z,5.2
2017-02-12T02:32:45.735Z,5.18
2017-02-12T02:33:45.744Z,5.2
2017-02-12T02:34:45.760Z,5.21
2017-02-12T02:35:45.766Z,5.18
2017-02-12T02:36:45.834Z,5.26
2017-02-12T02:37:45.792Z,5.23
2017-02-12T02:38:45.808Z,5.18
2017-02-12T02:39:45.808Z,5.26
2017-02-12T02:40:45.818Z,5.18
2017-02-12T02:41:45.841Z,5.18
2017-02-12T02:42:45.845Z,5.18
2017-02-12T02:43:45.854Z,5.14
2017-02-12T02:44:45.865Z,5.21
2017-02-12T02:45:45.874Z,5.2
2017-02-12T02:46:45.885Z,5.18
2017-02-12T02:47:45.895Z,5.2
2017-02-12T02:48:45.907Z,5.23
2017-02-12T02:49:45.919Z,5.17
2017-02-12T02:50:45.930Z,5.17
2017-02-12T02:51:45.551Z,5.18
2017-02-12T02:52:45.955Z,5.17
2017-02-12T02:53:45.966Z,5.14
2017-02-12T02:54:45.974Z,5.18
2017-02-12T02:55:45.983Z,5.15
2017-02-12T02:56:45.991Z,5.17
2017-02-12T02:57:46.007Z,5.11
2017-02-12T02:58:46.026Z,5.17
2017-02-12T02:59:46.025Z,5.23
2017-02-12T03:00:46.043Z,5.14
2017-02-12T03:01:46.050Z,5.14
2017-02-12T03:02:46.059Z,5.17
2017-02-12T03:03:46.074Z,5.15
2017-02-12T03:04:46.166Z,5.14
2017-02-12T03:05:45.695Z,5.12
2017-02-12T03:06:46.112Z,5.14
2017-02-12T03:07:46.117Z,5.15
2017-02-12T03:08:46.287Z,5.14
2017-02-12T03:09:46.172Z,5.12
2017-02-12T03:10:46.483Z,5.14
2017-02-12T03:11:46.163Z,5.21
2017-02-12T03:12:46.331Z,5.14
2017-02-12T03:13:46.178Z,5.17
2017-02-12T03:14:46.189Z,5.14
2017-02-12T03:15:46.203Z,5.1
2017-02-12T03:16:46.214Z,5.14
2017-02-12T03:17:46.223Z,5.15
2017-02-12T03:18:46.268Z,5.12
2017-02-12T03:19:46.244Z,5.18
2017-02-12T03:20:46.265Z,5.1
2017-02-12T03:21:46.272Z,5.14
2017-02-12T03:22:46.283Z,5.15
2017-02-12T03:23:46.291Z,5.11
2017-02-12T03:24:46.303Z,5.1
2017-02-12T03:25:46.320Z,5.12
2017-02-12T03:26:46.337Z,5.1
2017-02-12T03:27:45.937Z,5.12
2017-02-12T03:28:46.348Z,5.07
2017-02-12T03:29:46.356Z,5.12
2017-02-12T03:30:46.362Z,5.1
2017-02-12T03:31:46.377Z,5.11
2017-02-12T03:32:46.397Z,5.08
2017-02-12T03:33:46.403Z,5.11
2017-02-12T03:34:46.407Z,5.08
2017-02-12T03:35:46.024Z,5.1
2017-02-12T03:36:46.431Z,5.11
2017-02-12T03:37:46.050Z,5.15
2017-02-12T03:38:46.454Z,5.1
2017-02-12T03:39:46.470Z,5.11
2017-02-12T03:40:46.479Z,5.1
2017-02-12T03:41:46.487Z,5.11
2017-02-12T03:42:46.499Z,5.1
2017-02-12T03:43:46.515Z,5.11
2017-02-12T03:44:46.538Z,5.07
2017-02-12T03:45:46.530Z,5.12
2017-02-12T03:46:46.558Z,5.08
2017-02-12T03:47:46.551Z,5.05
2017-02-12T03:48:46.586Z,5.1
2017-02-12T03:49:46.575Z,5.08
2017-02-12T03:50:46.600Z,5.04
2017-02-12T03:51:46.600Z,5.05
2017-02-12T03:52:46.608Z,5.08
2017-02-12T03:53:46.612Z,5.07
2017-02-12T03:54:46.635Z,5.05
2017-02-12T03:55:46.648Z,5.02
2017-02-12T03:56:46.740Z,5
2017-02-12T03:57:46.751Z,4.97
2017-02-12T03:58:46.748Z,5
2017-02-12T03:59:46.759Z,5.02
2017-02-12T04:00:46.303Z,4.96
2017-02-12T04:01:46.305Z,5.04
2017-02-12T04:02:46.785Z,5.04
2017-02-12T04:03:46.792Z,5.05
2017-02-12T04:04:46.348Z,5
2017-02-12T04:05:46.797Z,5
2017-02-12T04:06:46.814Z,4.93
2017-02-12T04:07:46.822Z,4.97
2017-02-12T04:08:46.893Z,5.02
2017-02-12T04:09:46.905Z,4.97
2017-02-12T04:10:46.896Z,4.92
2017-02-12T04:11:46.904Z,4.94
2017-02-12T04:12:46.522Z,4.99
2017-02-12T04:13:46.952Z,4.94
2017-02-12T04:14:46.954Z,4.96
2017-02-12T04:15:46.968Z,4.97
2017-02-12T04:16:46.964Z,5.02
2017-02-12T04:17:46.886Z,4.97
2017-02-12T04:18:46.891Z,5
2017-02-12T04:19:46.900Z,5
2017-02-12T04:20:46.930Z,5
2017-02-12T04:21:46.937Z,5.05
2017-02-12T04:22:46.952Z,5.02
2017-02-12T04:23:47.004Z,5.02
2017-02-12T04:24:47.092Z,5.02
2017-02-12T04:25:47.079Z,4.99
2017-02-12T04:26:47.091Z,4.99
2017-02-12T04:27:47.077Z,5.02
2017-02-12T04:28:47.091Z,4.97
2017-02-12T04:29:47.095Z,4.99
2017-02-12T04:30:47.115Z,5.05
2017-02-12T04:31:47.123Z,4.99
2017-02-12T04:32:47.137Z,5.02
2017-02-12T04:33:46.743Z,5.05
2017-02-12T04:34:47.304Z,5
2017-02-12T04:35:47.270Z,4.97
2017-02-12T04:36:47.313Z,4.96
2017-02-12T04:37:47.226Z,5.07
2017-02-12T04:38:46.830Z,5.02
2017-02-12T04:39:46.836Z,4.97
2017-02-12T04:40:47.421Z,5.02
2017-02-12T04:41:47.252Z,5.07
2017-02-12T04:42:47.261Z,5
2017-02-12T04:43:47.257Z,4.96
2017-02-12T04:44:47.272Z,5.02
2017-02-12T04:45:47.412Z,5.04
2017-02-12T04:46:47.284Z,5.05
2017-02-12T04:47:47.297Z,5.02
2017-02-12T04:48:47.362Z,4.96
2017-02-12T04:49:47.379Z,4.99
2017-02-12T04:50:47.030Z,5.02
2017-02-12T04:51:46.995Z,4.99
2017-02-12T04:52:47.395Z,4.94
2017-02-12T04:53:47.402Z,5
2017-02-12T04:54:47.014Z,4.99
2017-02-12T04:55:47.467Z,4.99
2017-02-12T04:56:47.424Z,5.05
2017-02-12T04:57:47.031Z,5.02
2017-02-12T04:58:47.405Z,4.99
2017-02-12T04:59:47.017Z,4.96
2017-02-12T05:00:47.498Z,4.96
2017-02-12T05:01:47.419Z,5.07
2017-02-12T05:02:47.424Z,5.04
2017-02-12T05:03:47.445Z,4.96
2017-02-12T05:04:47.044Z,5.02
2017-02-12T05:05:47.556Z,4.96
2017-02-12T05:06:47.447Z,5.1
2017-02-12T05:07:47.418Z,4.93
2017-02-12T05:08:47.436Z,4.89
2017-02-12T05:09:47.049Z,4.89
2017-02-12T05:10:47.499Z,4.99
2017-02-12T05:11:47.462Z,5.02
2017-02-12T05:12:47.495Z,5.02
2017-02-12T05:13:47.481Z,4.9
2017-02-12T05:14:47.102Z,5.02
2017-02-12T05:15:47.505Z,5
2017-02-12T05:16:47.517Z,5
2017-02-12T05:17:47.535Z,5.04
2017-02-12T05:18:47.535Z,4.93
2017-02-12T05:19:47.150Z,4.99
2017-02-12T05:20:47.567Z,4.9
2017-02-12T05:21:47.174Z,4.94
2017-02-12T05:22:47.581Z,5
2017-02-12T05:23:47.595Z,4.89
2017-02-12T05:24:47.206Z,5
2017-02-12T05:25:47.623Z,4.89
2017-02-12T05:26:47.236Z,4.93
2017-02-12T05:27:47.636Z,4.97
2017-02-12T05:28:47.653Z,4.92
2017-02-12T05:29:47.654Z,4.94
2017-02-12T05:30:47.271Z,4.93
2017-02-12T05:31:47.678Z,4.99
2017-02-12T05:32:47.289Z,4.93
2017-02-12T05:33:47.302Z,4.99
2017-02-12T05:34:46.921Z,4.94
2017-02-12T05:35:47.331Z,4.96
2017-02-12T05:36:47.733Z,4.92
2017-02-12T05:37:47.750Z,4.92
2017-02-12T05:38:47.755Z,4.97
2017-02-12T05:39:47.763Z,4.93
2017-02-12T05:40:47.788Z,4.99
2017-02-12T05:41:47.784Z,4.96
2017-02-12T05:42:47.797Z,4.9
2017-02-12T05:43:47.411Z,4.94
2017-02-12T05:44:47.425Z,4.93
2017-02-12T05:45:47.828Z,4.92
2017-02-12T05:46:47.846Z,4.86
2017-02-12T05:47:47.449Z,4.92
2017-02-12T05:48:47.467Z,4.9
2017-02-12T05:49:47.078Z,4.94
2017-02-12T05:50:47.886Z,4.89
2017-02-12T05:51:47.902Z,4.96
2017-02-12T05:52:47.913Z,5.02
2017-02-12T05:53:47.910Z,4.93
2017-02-12T05:54:47.927Z,4.92
2017-02-12T05:55:47.936Z,4.89
2017-02-12T05:56:47.963Z,4.9
2017-02-12T05:57:47.960Z,4.94
2017-02-12T05:58:47.967Z,5
2017-02-12T05:59:47.978Z,4.89
2017-02-12T06:00:47.988Z,4.86
2017-02-12T06:01:48.000Z,4.94
2017-02-12T06:02:48.014Z,4.99
2017-02-12T06:03:48.021Z,4.89
2017-02-12T06:04:48.033Z,4.87
2017-02-12T06:05:48.051Z,5.02
2017-02-12T06:06:48.055Z,5
2017-02-12T06:07:48.069Z,4.96
2017-02-12T06:08:48.081Z,4.92
2017-02-12T06:09:48.087Z,4.96
2017-02-12T06:10:48.096Z,4.92
2017-02-12T06:11:48.115Z,4.89
2017-02-12T06:12:48.116Z,4.97
2017-02-12T06:13:48.128Z,4.99
2017-02-12T06:14:48.163Z,4.89
2017-02-12T06:15:47.755Z,5.04
2017-02-12T06:16:47.775Z,4.92
2017-02-12T06:17:47.782Z,5.02
2017-02-12T06:18:48.187Z,4.93
2017-02-12T06:19:48.192Z,4.89
2017-02-12T06:20:48.212Z,4.93
2017-02-12T06:21:48.221Z,5.08
2017-02-12T06:22:48.227Z,5.08
2017-02-12T06:23:48.242Z,4.94
2017-02-12T06:24:48.247Z,4.99
2017-02-12T06:25:48.259Z,4.97
2017-02-12T06:26:48.278Z,4.94
2017-02-12T06:27:48.280Z,4.99
2017-02-12T06:28:48.290Z,5
2017-02-12T06:29:48.303Z,4.92
2017-02-12T06:30:48.320Z,5.02
2017-02-12T06:31:48.325Z,4.99
2017-02-12T06:32:48.334Z,5.05
2017-02-12T06:33:47.950Z,5
2017-02-12T06:34:48.365Z,4.92
2017-02-12T06:35:48.371Z,4.99
2017-02-12T06:36:48.378Z,4.99
2017-02-12T06:37:48.414Z,5
2017-02-12T06:38:48.400Z,4.99
2017-02-12T06:39:48.409Z,4.97
2017-02-12T06:40:48.424Z,4.99
2017-02-12T06:41:48.429Z,5.05
2017-02-12T06:42:48.448Z,5.05
2017-02-12T06:43:48.462Z,4.89
2017-02-12T06:44:48.520Z,4.96
2017-02-12T06:45:48.534Z,4.96
2017-02-12T06:46:48.540Z,4.99
2017-02-12T06:47:48.157Z,4.97
2017-02-12T06:48:48.545Z,5.02
2017-02-12T06:49:48.559Z,4.97
2017-02-12T06:50:48.575Z,5.02
2017-02-12T06:51:48.574Z,4.97
2017-02-12T06:52:48.582Z,5.04
2017-02-12T06:53:48.579Z,5.05
2017-02-12T06:54:48.591Z,4.96
2017-02-12T06:55:48.598Z,5.07
2017-02-12T06:56:48.666Z,5.02
2017-02-12T06:57:48.666Z,4.96
2017-02-12T06:58:48.675Z,5.02
2017-02-12T06:59:48.682Z,4.94
2017-02-12T07:00:48.701Z,4.99
2017-02-12T07:01:48.701Z,5.02
2017-02-12T07:02:48.711Z,4.97
2017-02-12T07:03:48.705Z,4.97
2017-02-12T07:04:48.716Z,5.02
2017-02-12T07:05:48.727Z,4.99
2017-02-12T07:06:48.737Z,5.04
2017-02-12T07:07:48.746Z,5.04
2017-02-12T07:08:48.742Z,5.11
2017-02-12T07:09:48.789Z,5.05
2017-02-12T07:10:48.864Z,5.04
2017-02-12T07:11:48.866Z,5.05
2017-02-12T07:12:48.480Z,5.07
2017-02-12T07:13:48.863Z,5.07
2017-02-12T07:14:48.515Z,5.05
2017-02-12T07:15:48.879Z,5.11
2017-02-12T07:16:48.900Z,5
2017-02-12T07:17:49.017Z,5.07
2017-02-12T07:18:49.027Z,5.07
2017-02-12T07:19:49.035Z,5.08
2017-02-12T07:20:49.036Z,5.12
2017-02-12T07:21:49.048Z,5.11
2017-02-12T07:22:49.052Z,5.08
2017-02-12T07:23:49.087Z,5.07
2017-02-12T07:24:49.091Z,5.04
2017-02-12T07:25:49.210Z,5.11
2017-02-12T07:26:49.013Z,5.08
2017-02-12T07:27:49.012Z,5.11
2017-02-12T07:28:49.028Z,5.08
2017-02-12T07:29:49.029Z,5.14
2017-02-12T07:30:49.247Z,5.08
2017-02-12T07:31:49.079Z,5.08
2017-02-12T07:32:49.193Z,5.11
2017-02-12T07:33:49.188Z,5.11
2017-02-12T07:34:49.198Z,5.08
2017-02-12T07:35:49.258Z,5.08
2017-02-12T07:36:49.224Z,5.12
2017-02-12T07:37:49.226Z,5.11
2017-02-12T07:38:49.138Z,5.11
2017-02-12T07:39:49.142Z,5.07
2017-02-12T07:40:49.187Z,5.05
2017-02-12T07:41:49.166Z,5.07
2017-02-12T07:42:49.164Z,5.07
2017-02-12T07:43:49.176Z,5.15
2017-02-12T07:44:48.778Z,5.07
2017-02-12T07:45:49.269Z,5.1
2017-02-12T07:46:49.239Z,5.1
2017-02-12T07:47:49.236Z,5.12
2017-02-12T07:48:49.237Z,5.04
2017-02-12T07:49:49.307Z,5.08
2017-02-12T07:50:49.279Z,5.14
2017-02-12T07:51:49.189Z,5.1
2017-02-12T07:52:49.197Z,5.2
2017-02-12T07:53:49.204Z,5.1
2017-02-12T07:54:49.217Z,5.12
2017-02-12T07:55:49.284Z,5.17
2017-02-12T07:56:48.879Z,5.17
2017-02-12T07:57:49.332Z,5.18
2017-02-12T07:58:49.263Z,5.15
2017-02-12T07:59:49.271Z,5.2
2017-02-12T08:00:49.331Z,5.2
2017-02-12T08:01:49.317Z,5.23
2017-02-12T08:02:49.296Z,5.18
2017-02-12T08:03:49.313Z,5.18
2017-02-12T08:04:49.325Z,5.23
2017-02-12T08:05:49.341Z,5.23
2017-02-12T08:06:49.344Z,5.23
2017-02-12T08:07:49.364Z,5.25
2017-02-12T08:08:49.364Z,5.23
2017-02-12T08:09:49.380Z,5.26
2017-02-12T08:10:49.387Z,5.23
2017-02-12T08:11:49.404Z,5.15
2017-02-12T08:12:49.412Z,5.17
2017-02-12T08:13:49.435Z,5.2
2017-02-12T08:14:49.438Z,5.29
2017-02-12T08:15:49.445Z,5.2
2017-02-12T08:16:49.451Z,5.21
2017-02-12T08:17:49.463Z,5.25
2017-02-12T08:18:49.073Z,5.17
2017-02-12T08:19:49.485Z,5.2
2017-02-12T08:20:49.494Z,5.25
2017-02-12T08:21:49.508Z,5.2
2017-02-12T08:22:49.517Z,5.33
2017-02-12T08:23:49.538Z,5.23
2017-02-12T08:24:49.536Z,5.2
2017-02-12T08:25:49.554Z,5.28
2017-02-12T08:26:49.559Z,5.23
2017-02-12T08:27:49.568Z,5.2
2017-02-12T08:28:49.581Z,5.23
2017-02-12T08:29:49.594Z,5.23
2017-02-12T08:30:49.612Z,5.26
2017-02-12T08:31:49.619Z,5.29
2017-02-12T08:32:49.674Z,5.25
2017-02-12T08:33:49.644Z,5.32
2017-02-12T08:34:49.667Z,5.29
2017-02-12T08:35:49.664Z,5.26
2017-02-12T08:36:49.669Z,5.32
2017-02-12T08:37:49.685Z,5.26
2017-02-12T08:38:49.693Z,5.35
2017-02-12T08:39:49.704Z,5.33
2017-02-12T08:40:49.716Z,5.39
2017-02-12T08:41:49.729Z,5.32
2017-02-12T08:42:49.737Z,5.35
2017-02-12T08:43:49.747Z,5.33
2017-02-12T08:44:49.755Z,5.3
2017-02-12T08:45:49.774Z,5.3
2017-02-12T08:46:49.790Z,5.29
2017-02-12T08:47:49.793Z,5.33
2017-02-12T08:48:49.404Z,5.33
2017-02-12T08:49:49.811Z,5.35
2017-02-12T08:50:49.825Z,5.29
2017-02-12T08:51:49.836Z,5.38
2017-02-12T08:52:49.861Z,5.29
2017-02-12T08:53:49.855Z,5.43
2017-02-12T08:54:49.870Z,5.3
2017-02-12T08:55:49.875Z,5.33
2017-02-12T08:56:49.900Z,5.36
2017-02-12T08:57:49.905Z,5.41
2017-02-12T08:58:49.918Z,5.33
2017-02-12T08:59:49.930Z,5.38
2017-02-12T09:00:49.933Z,5.44
2017-02-12T09:01:49.946Z,5.36
2017-02-12T09:02:49.956Z,5.33
2017-02-12T09:03:49.969Z,5.3
2017-02-12T09:04:49.977Z,5.28
2017-02-12T09:05:50.028Z,5.35
2017-02-12T09:06:50.001Z,5.39
2017-02-12T09:07:49.732Z,5.39
2017-02-12T09:08:50.113Z,5.39
2017-02-12T09:09:50.040Z,5.43
2017-02-12T09:10:50.045Z,5.35
2017-02-12T09:11:50.064Z,5.32
2017-02-12T09:12:50.074Z,5.47
2017-02-12T09:13:50.077Z,5.38
2017-02-12T09:14:50.089Z,5.43
2017-02-12T09:15:50.101Z,5.38
2017-02-12T09:16:50.117Z,5.39
2017-02-12T09:17:50.124Z,5.41
2017-02-12T09:18:50.134Z,5.43
2017-02-12T09:19:50.148Z,5.41
2017-02-12T09:20:50.154Z,5.44
2017-02-12T09:21:50.168Z,5.47
2017-02-12T09:22:50.180Z,5.5
2017-02-12T09:23:50.188Z,5.47
2017-02-12T09:24:50.200Z,5.53
2017-02-12T09:25:50.206Z,5.61
2017-02-12T09:26:50.225Z,5.56
2017-02-12T09:27:50.230Z,5.56
2017-02-12T09:28:50.251Z,5.48
2017-02-12T09:29:50.254Z,5.54
2017-02-12T09:30:50.272Z,5.5
2017-02-12T09:31:50.276Z,5.51
2017-02-12T09:32:50.289Z,5.56
2017-02-12T09:33:49.904Z,5.47
2017-02-12T09:34:50.308Z,5.48
2017-02-12T09:35:50.328Z,5.5
2017-02-12T09:36:50.336Z,5.62
2017-02-12T09:37:50.347Z,5.61
2017-02-12T09:38:50.365Z,5.57
2017-02-12T09:39:50.362Z,5.61
2017-02-12T09:40:50.376Z,5.59
2017-02-12T09:41:50.386Z,5.62
2017-02-12T09:42:50.418Z,5.62
2017-02-12T09:43:50.413Z,5.72
2017-02-12T09:44:50.423Z,5.66
2017-02-12T09:45:50.434Z,5.71
2017-02-12T09:46:50.444Z,5.64
2017-02-12T09:47:50.492Z,5.66
2017-02-12T09:48:50.472Z,5.66
2017-02-12T09:49:50.483Z,5.66
2017-02-12T09:50:50.492Z,5.71
2017-02-12T09:51:50.101Z,5.64
2017-02-12T09:52:50.516Z,5.72
2017-02-12T09:53:50.524Z,5.72
2017-02-12T09:54:50.580Z,5.72
2017-02-12T09:55:50.551Z,5.69
2017-02-12T09:56:50.553Z,5.64
2017-02-12T09:57:50.569Z,5.64
2017-02-12T09:58:50.583Z,5.69
2017-02-12T09:59:50.589Z,5.73
2017-02-12T10:00:50.605Z,5.73
2017-02-12T10:01:50.610Z,5.82
2017-02-12T10:02:50.628Z,5.71
2017-02-12T10:03:50.641Z,5.8
2017-02-12T10:04:50.646Z,5.76
2017-02-12T10:05:50.256Z,5.82
2017-02-12T10:06:50.668Z,5.75
2017-02-12T10:07:50.680Z,5.8
2017-02-12T10:08:50.692Z,5.8
2017-02-12T10:09:50.701Z,5.76
2017-02-12T10:10:50.708Z,5.83
2017-02-12T10:11:50.722Z,5.8
2017-02-12T10:12:50.737Z,5.86
2017-02-12T10:13:50.746Z,5.72
2017-02-12T10:14:50.757Z,5.87
2017-02-12T10:15:50.372Z,5.87
2017-02-12T10:16:50.793Z,5.8
2017-02-12T10:17:50.793Z,5.76
2017-02-12T10:18:50.809Z,5.73
2017-02-12T10:19:50.863Z,5.73
2017-02-12T10:20:50.822Z,5.79
2017-02-12T10:21:50.841Z,5.86
2017-02-12T10:22:50.854Z,5.79
2017-02-12T10:23:50.469Z,5.8
2017-02-12T10:24:50.870Z,5.9
2017-02-12T10:25:50.887Z,5.89
2017-02-12T10:26:50.906Z,5.9
2017-02-12T10:27:50.913Z,5.9
2017-02-12T10:28:50.920Z,5.9
2017-02-12T10:29:50.928Z,5.9
2017-02-12T10:30:50.940Z,5.86
2017-02-12T10:31:50.951Z,5.84
2017-02-12T10:32:50.977Z,5.8
2017-02-12T10:33:50.972Z,5.87
2017-02-12T10:34:50.989Z,5.91
2017-02-12T10:35:51.001Z,5.94
2017-02-12T10:36:51.008Z,5.89
2017-02-12T10:37:51.025Z,5.89
2017-02-12T10:38:51.032Z,5.89
2017-02-12T10:39:51.045Z,5.87
2017-02-12T10:40:51.055Z,5.94
2017-02-12T10:41:51.074Z,5.93
2017-02-12T10:42:50.680Z,5.98
2017-02-12T10:43:51.196Z,5.91
2017-02-12T10:44:51.243Z,5.9
2017-02-12T10:45:51.217Z,5.97
2017-02-12T10:46:51.223Z,5.91
2017-02-12T10:47:51.233Z,5.91
2017-02-12T10:48:51.254Z,5.93
2017-02-12T10:49:51.269Z,6.01
2017-02-12T10:50:51.277Z,5.99
2017-02-12T10:51:51.286Z,5.98
2017-02-12T10:52:51.288Z,6.01
2017-02-12T10:53:51.290Z,6.02
2017-02-12T10:54:51.349Z,5.99
2017-02-12T10:55:51.344Z,5.98
2017-02-12T10:56:51.353Z,6.02
2017-02-12T10:57:51.394Z,6.01
2017-02-12T10:58:51.357Z,6.05
2017-02-12T10:59:51.311Z,6.05
2017-02-12T11:00:51.289Z,6.08
2017-02-12T11:01:51.298Z,6.04
2017-02-12T11:02:51.350Z,6.19
2017-02-12T11:03:51.360Z,6.14
2017-02-12T11:04:51.372Z,6.09
2017-02-12T11:05:51.377Z,6.11
2017-02-12T11:06:51.375Z,6.09
2017-02-12T11:07:51.387Z,6.12
2017-02-12T11:08:51.391Z,6.14
2017-02-12T11:09:51.400Z,6.16
2017-02-12T11:10:51.408Z,6.09
2017-02-12T11:11:51.416Z,6.12
2017-02-12T11:12:51.479Z,6.12
2017-02-12T11:13:51.550Z,6.11
2017-02-12T11:14:51.551Z,6.16
2017-02-12T11:15:51.558Z,6.12
2017-02-12T11:16:51.566Z,6.17
2017-02-12T11:17:51.578Z,6.16
2017-02-12T11:18:51.590Z,6.14
2017-02-12T11:19:51.595Z,6.24
2017-02-12T11:20:51.724Z,6.17
2017-02-12T11:21:51.641Z,6.26
2017-02-12T11:22:51.700Z,6.24
2017-02-12T11:23:51.701Z,6.27
2017-02-12T11:24:51.710Z,6.31
2017-02-12T11:25:51.902Z,6.27
2017-02-12T11:26:51.726Z,6.27
2017-02-12T11:27:51.736Z,6.33
2017-02-12T11:28:51.741Z,6.27
2017-02-12T11:29:51.746Z,6.3
2017-02-12T11:30:51.903Z,6.28
2017-02-12T11:31:51.762Z,6.36
2017-02-12T11:32:51.765Z,6.35
2017-02-12T11:33:51.781Z,6.36
2017-02-12T11:34:51.775Z,6.36
2017-02-12T11:35:51.861Z,6.36
2017-02-12T11:36:51.845Z,6.36
2017-02-12T11:37:51.803Z,6.48
2017-02-12T11:38:51.839Z,6.49
2017-02-12T11:39:51.859Z,6.31
2017-02-12T11:40:51.951Z,6.42
2017-02-12T11:41:51.872Z,6.41
2017-02-12T11:42:51.876Z,6.44
2017-02-12T11:43:51.874Z,6.45
2017-02-12T11:44:51.888Z,6.52
2017-02-12T11:45:51.810Z,6.51
2017-02-12T11:46:51.827Z,6.49
2017-02-12T11:47:51.834Z,6.48
2017-02-12T11:48:51.840Z,6.46
2017-02-12T11:49:51.856Z,6.49
2017-02-12T11:50:51.869Z,6.52
2017-02-12T11:51:51.878Z,6.51
2017-02-12T11:52:51.888Z,6.48
2017-02-12T11:53:51.905Z,6.46
2017-02-12T11:54:51.952Z,6.46
2017-02-12T11:55:52.035Z,6.56
2017-02-12T11:56:52.055Z,6.48
2017-02-12T11:57:52.189Z,6.54
2017-02-12T11:58:52.144Z,6.54
2017-02-12T11:59:52.143Z,6.54
2017-02-12T12:00:52.150Z,6.57
2017-02-12T12:01:51.763Z,6.52
2017-02-12T12:02:52.168Z,6.51
2017-02-12T12:03:52.181Z,6.56
2017-02-12T12:04:52.188Z,6.52
2017-02-12T12:05:52.185Z,6.54
2017-02-12T12:06:51.669Z,6.57
2017-02-12T12:07:52.242Z,6.49
2017-02-12T12:08:52.251Z,6.52
2017-02-12T12:09:52.249Z,6.6
2017-02-12T12:10:52.262Z,6.62
2017-02-12T12:11:52.241Z,6.59
2017-02-12T12:12:52.246Z,6.56
2017-02-12T12:13:52.257Z,6.57
2017-02-12T12:14:52.264Z,6.57
2017-02-12T12:15:52.266Z,6.62
2017-02-12T12:16:52.273Z,6.64
2017-02-12T12:17:52.281Z,6.66
2017-02-12T12:18:52.337Z,6.59
2017-02-12T12:19:52.300Z,6.7
2017-02-12T12:20:51.893Z,6.59
2017-02-12T12:21:52.301Z,6.63
2017-02-12T12:22:52.296Z,6.62
2017-02-12T12:23:52.308Z,6.66
2017-02-12T12:24:51.967Z,6.7
2017-02-12T12:25:52.334Z,6.64
2017-02-12T12:26:52.336Z,6.74
2017-02-12T12:27:52.340Z,6.64
2017-02-12T12:28:52.342Z,6.59
2017-02-12T12:29:52.350Z,6.67
2017-02-12T12:30:52.345Z,6.64
2017-02-12T12:31:52.360Z,6.66
2017-02-12T12:32:52.377Z,6.66
2017-02-12T12:33:52.502Z,6.62
2017-02-12T12:34:52.397Z,6.62
2017-02-12T12:35:52.404Z,6.62
2017-02-12T12:36:52.419Z,6.7
2017-02-12T12:37:52.429Z,6.67
2017-02-12T12:38:52.443Z,6.63
2017-02-12T12:39:52.452Z,6.69
2017-02-12T12:40:52.474Z,6.69
2017-02-12T12:41:52.539Z,6.74
2017-02-12T12:42:52.491Z,6.69
2017-02-12T12:43:52.519Z,6.75
2017-02-12T12:44:52.529Z,6.69
2017-02-12T12:45:52.532Z,6.79
2017-02-12T12:46:52.653Z,6.75
2017-02-12T12:47:52.554Z,6.78
2017-02-12T12:48:52.561Z,6.75
2017-02-12T12:49:52.574Z,6.69
2017-02-12T12:50:52.590Z,6.78
2017-02-12T12:51:52.600Z,6.77
2017-02-12T12:52:52.610Z,6.7
2017-02-12T12:53:52.640Z,6.78
2017-02-12T12:54:52.761Z,6.81
2017-02-12T12:55:52.797Z,6.74
2017-02-12T12:56:52.675Z,6.81
2017-02-12T12:57:52.753Z,6.75
2017-02-12T12:58:52.687Z,6.75
2017-02-12T12:59:52.704Z,6.74
2017-02-12T13:00:52.758Z,6.79
2017-02-12T13:01:52.766Z,6.77
2017-02-12T13:02:52.774Z,6.78
2017-02-12T13:03:52.750Z,6.78
2017-02-12T13:04:52.758Z,6.78
2017-02-12T13:05:52.770Z,6.77
2017-02-12T13:06:52.800Z,6.74
2017-02-12T13:07:52.801Z,6.81
2017-02-12T13:08:52.409Z,6.75
2017-02-12T13:09:52.820Z,6.77
2017-02-12T13:10:52.827Z,6.77
2017-02-12T13:11:52.850Z,6.74
2017-02-12T13:12:52.861Z,6.77
2017-02-12T13:13:52.873Z,6.78
2017-02-12T13:14:52.886Z,6.72
2017-02-12T13:15:52.898Z,6.75
2017-02-12T13:16:52.906Z,6.7
2017-02-12T13:17:52.921Z,6.75
2017-02-12T13:18:52.932Z,6.81
2017-02-12T13:19:52.941Z,6.77
2017-02-12T13:20:52.954Z,6.75
2017-02-12T13:21:52.973Z,6.72
2017-02-12T13:22:52.975Z,6.77
2017-02-12T13:23:52.600Z,6.79